sensor_id;sensor_type;location;lat;lon;timestamp;P1;durP1;ratioP1;P2;durP2;ratioP2
14187;SDS011;7175;51.978;5.330;2023-04-30T00:01:04;99.30;;;93.70;;
14187;SDS011;7175;51.978;5.330;2023-04-30T00:03:32;100.80;;;95.00;;
14187;SDS011;7175;51.978;5.330;2023-04-30T00:06:01;100.40;;;94.50;;
14187;SDS011;7175;51.978;5.330;2023-04-30T00:08:29;99.77;;;94.07;;
14187;SDS011;7175;51.978;5.330;2023-04-30T00:10:58;99.33;;;93.60;;
14187;SDS011;7175;51.978;5.330;2023-04-30T00:13:26;100.37;;;94.47;;
14187;SDS011;7175;51.978;5.330;2023-04-30T00:15:54;101.97;;;96.00;;
14187;SDS011;7175;51.978;5.330;2023-04-30T00:18:22;100.33;;;94.33;;
14187;SDS011;7175;51.978;5.330;2023-04-30T00:20:50;99.03;;;93.03;;
14187;SDS011;7175;51.978;5.330;2023-04-30T00:23:19;101.67;;;95.67;;
14187;SDS011;7175;51.978;5.330;2023-04-30T00:25:47;102.90;;;96.80;;
14187;SDS011;7175;51.978;5.330;2023-04-30T00:28:16;103.17;;;96.97;;
14187;SDS011;7175;51.978;5.330;2023-04-30T00:30:44;103.87;;;97.67;;
14187;SDS011;7175;51.978;5.330;2023-04-30T00:33:13;104.13;;;97.90;;
14187;SDS011;7175;51.978;5.330;2023-04-30T00:35:41;107.00;;;100.60;;
14187;SDS011;7175;51.978;5.330;2023-04-30T00:38:09;106.63;;;100.30;;
14187;SDS011;7175;51.978;5.330;2023-04-30T00:40:37;108.63;;;102.23;;
14187;SDS011;7175;51.978;5.330;2023-04-30T00:43:07;108.90;;;102.50;;
14187;SDS011;7175;51.978;5.330;2023-04-30T00:45:37;109.57;;;103.07;;
14187;SDS011;7175;51.978;5.330;2023-04-30T00:48:05;105.93;;;99.47;;
14187;SDS011;7175;51.978;5.330;2023-04-30T00:50:34;108.17;;;101.67;;
14187;SDS011;7175;51.978;5.330;2023-04-30T00:53:03;108.33;;;101.70;;
14187;SDS011;7175;51.978;5.330;2023-04-30T00:55:31;107.70;;;100.90;;
14187;SDS011;7175;51.978;5.330;2023-04-30T00:57:59;106.77;;;100.07;;
14187;SDS011;7175;51.978;5.330;2023-04-30T01:00:28;107.30;;;100.50;;
14187;SDS011;7175;51.978;5.330;2023-04-30T01:02:58;105.23;;;98.43;;
14187;SDS011;7175;51.978;5.330;2023-04-30T01:05:26;105.50;;;98.60;;
14187;SDS011;7175;51.978;5.330;2023-04-30T01:07:55;105.87;;;98.90;;
14187;SDS011;7175;51.978;5.330;2023-04-30T01:10:24;108.93;;;101.73;;
14187;SDS011;7175;51.978;5.330;2023-04-30T01:13:00;109.40;;;102.40;;
14187;SDS011;7175;51.978;5.330;2023-04-30T01:15:35;108.63;;;101.63;;
14187;SDS011;7175;51.978;5.330;2023-04-30T01:18:11;111.17;;;103.90;;
14187;SDS011;7175;51.978;5.330;2023-04-30T01:20:46;108.40;;;101.17;;
14187;SDS011;7175;51.978;5.330;2023-04-30T01:23:18;111.13;;;103.83;;
14187;SDS011;7175;51.978;5.330;2023-04-30T01:26:06;111.77;;;104.37;;
14187;SDS011;7175;51.978;5.330;2023-04-30T01:28:41;110.10;;;102.50;;
14187;SDS011;7175;51.978;5.330;2023-04-30T01:31:12;109.73;;;102.23;;
14187;SDS011;7175;51.978;5.330;2023-04-30T01:33:40;110.43;;;102.93;;
14187;SDS011;7175;51.978;5.330;2023-04-30T01:36:11;113.00;;;105.47;;
14187;SDS011;7175;51.978;5.330;2023-04-30T01:39:14;113.40;;;105.70;;
14187;SDS011;7175;51.978;5.330;2023-04-30T01:42:04;112.33;;;104.70;;
14187;SDS011;7175;51.978;5.330;2023-04-30T01:44:44;113.87;;;106.07;;
14187;SDS011;7175;51.978;5.330;2023-04-30T01:47:23;114.23;;;106.33;;
14187;SDS011;7175;51.978;5.330;2023-04-30T01:50:02;111.03;;;103.30;;
14187;SDS011;7175;51.978;5.330;2023-04-30T01:52:41;114.80;;;107.00;;
14187;SDS011;7175;51.978;5.330;2023-04-30T01:55:14;115.07;;;107.23;;
14187;SDS011;7175;51.978;5.330;2023-04-30T01:57:48;114.10;;;106.20;;
14187;SDS011;7175;51.978;5.330;2023-04-30T02:00:24;113.30;;;105.00;;
14187;SDS011;7175;51.978;5.330;2023-04-30T02:02:53;114.30;;;106.20;;
14187;SDS011;7175;51.978;5.330;2023-04-30T02:05:21;117.60;;;109.50;;
14187;SDS011;7175;51.978;5.330;2023-04-30T02:07:50;117.00;;;108.80;;
14187;SDS011;7175;51.978;5.330;2023-04-30T02:10:20;115.13;;;107.03;;
14187;SDS011;7175;51.978;5.330;2023-04-30T02:12:49;114.37;;;106.27;;
14187;SDS011;7175;51.978;5.330;2023-04-30T02:15:17;116.03;;;107.87;;
14187;SDS011;7175;51.978;5.330;2023-04-30T02:17:47;113.40;;;105.20;;
14187;SDS011;7175;51.978;5.330;2023-04-30T02:20:15;113.87;;;105.63;;
14187;SDS011;7175;51.978;5.330;2023-04-30T02:22:43;115.53;;;107.23;;
14187;SDS011;7175;51.978;5.330;2023-04-30T02:25:12;118.60;;;110.20;;
14187;SDS011;7175;51.978;5.330;2023-04-30T02:27:40;117.03;;;108.70;;
14187;SDS011;7175;51.978;5.330;2023-04-30T02:30:08;115.87;;;107.37;;
14187;SDS011;7175;51.978;5.330;2023-04-30T02:32:36;114.93;;;106.53;;
14187;SDS011;7175;51.978;5.330;2023-04-30T02:35:06;114.97;;;106.77;;
14187;SDS011;7175;51.978;5.330;2023-04-30T02:37:35;117.03;;;108.70;;
14187;SDS011;7175;51.978;5.330;2023-04-30T02:40:03;115.67;;;107.33;;
14187;SDS011;7175;51.978;5.330;2023-04-30T02:42:32;112.93;;;104.77;;
14187;SDS011;7175;51.978;5.330;2023-04-30T02:45:00;112.10;;;103.80;;
14187;SDS011;7175;51.978;5.330;2023-04-30T02:47:28;112.73;;;104.63;;
14187;SDS011;7175;51.978;5.330;2023-04-30T02:49:56;111.93;;;103.63;;
14187;SDS011;7175;51.978;5.330;2023-04-30T02:52:26;112.03;;;103.93;;
14187;SDS011;7175;51.978;5.330;2023-04-30T02:54:54;114.00;;;105.60;;
14187;SDS011;7175;51.978;5.330;2023-04-30T02:57:22;111.13;;;102.90;;
14187;SDS011;7175;51.978;5.330;2023-04-30T02:59:51;113.37;;;104.93;;
14187;SDS011;7175;51.978;5.330;2023-04-30T03:02:20;106.77;;;98.47;;
14187;SDS011;7175;51.978;5.330;2023-04-30T03:04:49;107.87;;;99.37;;
14187;SDS011;7175;51.978;5.330;2023-04-30T03:07:17;109.73;;;101.23;;
14187;SDS011;7175;51.978;5.330;2023-04-30T03:09:46;109.07;;;100.37;;
14187;SDS011;7175;51.978;5.330;2023-04-30T03:12:14;108.33;;;99.63;;
14187;SDS011;7175;51.978;5.330;2023-04-30T03:14:43;109.10;;;100.30;;
14187;SDS011;7175;51.978;5.330;2023-04-30T03:17:11;106.20;;;97.50;;
14187;SDS011;7175;51.978;5.330;2023-04-30T03:19:39;110.90;;;102.00;;
14187;SDS011;7175;51.978;5.330;2023-04-30T03:22:07;112.87;;;103.77;;
14187;SDS011;7175;51.978;5.330;2023-04-30T03:24:35;112.73;;;103.73;;
14187;SDS011;7175;51.978;5.330;2023-04-30T03:27:05;114.90;;;105.87;;
14187;SDS011;7175;51.978;5.330;2023-04-30T03:29:35;113.07;;;104.07;;
14187;SDS011;7175;51.978;5.330;2023-04-30T03:32:03;113.47;;;104.43;;
14187;SDS011;7175;51.978;5.330;2023-04-30T03:34:31;114.83;;;105.60;;
14187;SDS011;7175;51.978;5.330;2023-04-30T03:36:59;113.33;;;104.13;;
14187;SDS011;7175;51.978;5.330;2023-04-30T03:39:29;116.23;;;106.87;;
14187;SDS011;7175;51.978;5.330;2023-04-30T03:41:57;115.73;;;106.20;;
14187;SDS011;7175;51.978;5.330;2023-04-30T03:44:27;114.87;;;105.33;;
14187;SDS011;7175;51.978;5.330;2023-04-30T03:46:55;116.67;;;107.07;;
14187;SDS011;7175;51.978;5.330;2023-04-30T03:49:23;117.43;;;107.73;;
14187;SDS011;7175;51.978;5.330;2023-04-30T03:51:51;114.43;;;104.93;;
14187;SDS011;7175;51.978;5.330;2023-04-30T03:54:19;117.90;;;108.13;;
14187;SDS011;7175;51.978;5.330;2023-04-30T03:56:47;117.03;;;107.37;;
14187;SDS011;7175;51.978;5.330;2023-04-30T03:59:15;121.87;;;112.17;;
14187;SDS011;7175;51.978;5.330;2023-04-30T04:01:45;119.90;;;110.40;;
14187;SDS011;7175;51.978;5.330;2023-04-30T04:04:13;120.97;;;111.57;;
14187;SDS011;7175;51.978;5.330;2023-04-30T04:06:42;119.53;;;110.23;;
14187;SDS011;7175;51.978;5.330;2023-04-30T04:09:10;121.03;;;111.73;;
14187;SDS011;7175;51.978;5.330;2023-04-30T04:11:38;121.03;;;111.73;;
14187;SDS011;7175;51.978;5.330;2023-04-30T04:14:06;122.00;;;112.73;;
14187;SDS011;7175;51.978;5.330;2023-04-30T04:16:34;123.20;;;113.90;;
14187;SDS011;7175;51.978;5.330;2023-04-30T04:19:05;128.40;;;118.90;;
14187;SDS011;7175;51.978;5.330;2023-04-30T04:21:33;129.80;;;120.10;;
14187;SDS011;7175;51.978;5.330;2023-04-30T04:24:01;129.07;;;119.43;;
14187;SDS011;7175;51.978;5.330;2023-04-30T04:26:33;128.13;;;118.43;;
14187;SDS011;7175;51.978;5.330;2023-04-30T04:29:02;127.37;;;117.57;;
14187;SDS011;7175;51.978;5.330;2023-04-30T04:31:30;125.60;;;116.30;;
14187;SDS011;7175;51.978;5.330;2023-04-30T04:33:59;124.23;;;114.93;;
14187;SDS011;7175;51.978;5.330;2023-04-30T04:36:31;127.73;;;118.27;;
14187;SDS011;7175;51.978;5.330;2023-04-30T04:38:59;125.93;;;116.50;;
14187;SDS011;7175;51.978;5.330;2023-04-30T04:41:28;124.00;;;114.70;;
14187;SDS011;7175;51.978;5.330;2023-04-30T04:43:58;125.47;;;116.20;;
14187;SDS011;7175;51.978;5.330;2023-04-30T04:46:27;128.20;;;118.50;;
14187;SDS011;7175;51.978;5.330;2023-04-30T04:48:55;125.30;;;115.70;;
14187;SDS011;7175;51.978;5.330;2023-04-30T04:51:23;127.70;;;118.03;;
14187;SDS011;7175;51.978;5.330;2023-04-30T04:53:53;129.67;;;119.87;;
14187;SDS011;7175;51.978;5.330;2023-04-30T04:56:21;132.27;;;122.23;;
14187;SDS011;7175;51.978;5.330;2023-04-30T04:58:49;132.13;;;122.03;;
14187;SDS011;7175;51.978;5.330;2023-04-30T05:01:18;133.27;;;123.20;;
14187;SDS011;7175;51.978;5.330;2023-04-30T05:03:46;127.67;;;117.97;;
14187;SDS011;7175;51.978;5.330;2023-04-30T05:06:15;130.03;;;120.23;;
14187;SDS011;7175;51.978;5.330;2023-04-30T05:08:43;132.27;;;122.07;;
14187;SDS011;7175;51.978;5.330;2023-04-30T05:11:13;129.83;;;119.97;;
14187;SDS011;7175;51.978;5.330;2023-04-30T05:13:41;131.93;;;121.93;;
14187;SDS011;7175;51.978;5.330;2023-04-30T05:16:09;130.33;;;120.37;;
14187;SDS011;7175;51.978;5.330;2023-04-30T05:18:37;136.97;;;126.37;;
14187;SDS011;7175;51.978;5.330;2023-04-30T05:21:05;136.10;;;125.70;;
14187;SDS011;7175;51.978;5.330;2023-04-30T05:23:34;136.70;;;126.07;;
14187;SDS011;7175;51.978;5.330;2023-04-30T05:26:02;142.80;;;132.00;;
14187;SDS011;7175;51.978;5.330;2023-04-30T05:28:32;143.93;;;133.00;;
14187;SDS011;7175;51.978;5.330;2023-04-30T05:31:01;145.93;;;134.83;;
14187;SDS011;7175;51.978;5.330;2023-04-30T05:33:29;146.87;;;135.27;;
14187;SDS011;7175;51.978;5.330;2023-04-30T05:35:57;147.00;;;135.90;;
14187;SDS011;7175;51.978;5.330;2023-04-30T05:38:25;144.53;;;133.63;;
14187;SDS011;7175;51.978;5.330;2023-04-30T05:40:53;147.87;;;136.77;;
14187;SDS011;7175;51.978;5.330;2023-04-30T05:43:21;151.53;;;139.57;;
14187;SDS011;7175;51.978;5.330;2023-04-30T05:45:51;142.80;;;132.10;;
14187;SDS011;7175;51.978;5.330;2023-04-30T05:48:19;141.67;;;131.30;;
14187;SDS011;7175;51.978;5.330;2023-04-30T05:50:47;139.53;;;129.20;;
14187;SDS011;7175;51.978;5.330;2023-04-30T05:53:15;137.23;;;127.20;;
14187;SDS011;7175;51.978;5.330;2023-04-30T05:55:43;131.30;;;121.87;;
14187;SDS011;7175;51.978;5.330;2023-04-30T05:58:11;123.20;;;114.40;;
14187;SDS011;7175;51.978;5.330;2023-04-30T06:00:40;124.70;;;115.80;;
14187;SDS011;7175;51.978;5.330;2023-04-30T06:03:09;122.27;;;113.63;;
14187;SDS011;7175;51.978;5.330;2023-04-30T06:05:38;120.80;;;112.40;;
14187;SDS011;7175;51.978;5.330;2023-04-30T06:08:07;113.03;;;105.53;;
14187;SDS011;7175;51.978;5.330;2023-04-30T06:10:35;107.83;;;101.03;;
14187;SDS011;7175;51.978;5.330;2023-04-30T06:13:04;86.93;;;81.63;;
14187;SDS011;7175;51.978;5.330;2023-04-30T06:15:33;67.33;;;63.13;;
14187;SDS011;7175;51.978;5.330;2023-04-30T06:18:01;60.53;;;56.73;;
14187;SDS011;7175;51.978;5.330;2023-04-30T06:20:31;56.70;;;53.10;;
14187;SDS011;7175;51.978;5.330;2023-04-30T06:22:59;52.90;;;49.50;;
14187;SDS011;7175;51.978;5.330;2023-04-30T06:25:29;45.30;;;42.30;;
14187;SDS011;7175;51.978;5.330;2023-04-30T06:27:57;41.60;;;38.80;;
14187;SDS011;7175;51.978;5.330;2023-04-30T06:30:26;38.10;;;35.40;;
14187;SDS011;7175;51.978;5.330;2023-04-30T06:32:56;31.83;;;29.40;;
14187;SDS011;7175;51.978;5.330;2023-04-30T06:35:25;30.07;;;27.87;;
14187;SDS011;7175;51.978;5.330;2023-04-30T06:37:54;29.40;;;27.20;;
14187;SDS011;7175;51.978;5.330;2023-04-30T06:40:22;28.00;;;25.90;;
14187;SDS011;7175;51.978;5.330;2023-04-30T06:42:50;26.83;;;24.83;;
14187;SDS011;7175;51.978;5.330;2023-04-30T06:45:20;26.20;;;24.20;;
14187;SDS011;7175;51.978;5.330;2023-04-30T06:47:48;25.03;;;23.13;;
14187;SDS011;7175;51.978;5.330;2023-04-30T06:50:18;26.50;;;24.50;;
14187;SDS011;7175;51.978;5.330;2023-04-30T06:52:47;24.40;;;22.50;;
14187;SDS011;7175;51.978;5.330;2023-04-30T06:55:16;25.30;;;23.40;;
14187;SDS011;7175;51.978;5.330;2023-04-30T06:57:45;25.20;;;23.30;;
14187;SDS011;7175;51.978;5.330;2023-04-30T07:00:13;24.10;;;22.20;;
14187;SDS011;7175;51.978;5.330;2023-04-30T07:02:42;24.47;;;22.57;;
14187;SDS011;7175;51.978;5.330;2023-04-30T07:05:13;24.97;;;23.07;;
14187;SDS011;7175;51.978;5.330;2023-04-30T07:07:42;23.97;;;22.17;;
14187;SDS011;7175;51.978;5.330;2023-04-30T07:10:10;23.97;;;22.10;;
14187;SDS011;7175;51.978;5.330;2023-04-30T07:12:40;24.07;;;22.17;;
14187;SDS011;7175;51.978;5.330;2023-04-30T07:15:08;23.50;;;21.70;;
14187;SDS011;7175;51.978;5.330;2023-04-30T07:17:36;22.40;;;20.70;;
14187;SDS011;7175;51.978;5.330;2023-04-30T07:20:07;23.00;;;21.20;;
14187;SDS011;7175;51.978;5.330;2023-04-30T07:22:36;23.03;;;21.20;;
14187;SDS011;7175;51.978;5.330;2023-04-30T07:25:04;23.70;;;21.90;;
14187;SDS011;7175;51.978;5.330;2023-04-30T07:27:33;22.73;;;21.03;;
14187;SDS011;7175;51.978;5.330;2023-04-30T07:30:03;23.50;;;21.70;;
14187;SDS011;7175;51.978;5.330;2023-04-30T07:32:33;22.40;;;20.70;;
14187;SDS011;7175;51.978;5.330;2023-04-30T07:35:01;20.33;;;18.73;;
14187;SDS011;7175;51.978;5.330;2023-04-30T07:37:30;21.75;;;20.15;;
14187;SDS011;7175;51.978;5.330;2023-04-30T07:40:01;20.20;;;18.70;;
14187;SDS011;7175;51.978;5.330;2023-04-30T07:42:30;20.60;;;19.00;;
14187;SDS011;7175;51.978;5.330;2023-04-30T07:44:58;20.50;;;18.90;;
14187;SDS011;7175;51.978;5.330;2023-04-30T07:47:30;19.27;;;17.77;;
14187;SDS011;7175;51.978;5.330;2023-04-30T07:49:59;19.47;;;17.97;;
14187;SDS011;7175;51.978;5.330;2023-04-30T07:52:27;20.10;;;18.50;;
14187;SDS011;7175;51.978;5.330;2023-04-30T07:54:55;19.70;;;18.20;;
14187;SDS011;7175;51.978;5.330;2023-04-30T07:57:23;19.67;;;18.13;;
14187;SDS011;7175;51.978;5.330;2023-04-30T07:59:53;19.87;;;18.37;;
14187;SDS011;7175;51.978;5.330;2023-04-30T08:02:21;20.17;;;18.57;;
14187;SDS011;7175;51.978;5.330;2023-04-30T08:04:51;19.80;;;18.20;;
14187;SDS011;7175;51.978;5.330;2023-04-30T08:07:19;19.87;;;18.37;;
14187;SDS011;7175;51.978;5.330;2023-04-30T08:09:47;20.80;;;19.20;;
14187;SDS011;7175;51.978;5.330;2023-04-30T08:12:16;19.13;;;17.63;;
14187;SDS011;7175;51.978;5.330;2023-04-30T08:14:44;19.20;;;17.70;;
14187;SDS011;7175;51.978;5.330;2023-04-30T08:17:13;19.03;;;17.60;;
14187;SDS011;7175;51.978;5.330;2023-04-30T08:19:41;19.50;;;17.90;;
14187;SDS011;7175;51.978;5.330;2023-04-30T08:22:11;19.07;;;17.60;;
14187;SDS011;7175;51.978;5.330;2023-04-30T08:24:40;19.03;;;17.53;;
14187;SDS011;7175;51.978;5.330;2023-04-30T08:27:08;19.40;;;17.90;;
14187;SDS011;7175;51.978;5.330;2023-04-30T08:29:37;18.63;;;17.23;;
14187;SDS011;7175;51.978;5.330;2023-04-30T08:32:05;18.80;;;17.40;;
14187;SDS011;7175;51.978;5.330;2023-04-30T08:34:34;19.20;;;17.70;;
14187;SDS011;7175;51.978;5.330;2023-04-30T08:37:03;18.90;;;17.40;;
14187;SDS011;7175;51.978;5.330;2023-04-30T08:39:33;18.70;;;17.30;;
14187;SDS011;7175;51.978;5.330;2023-04-30T08:42:03;18.93;;;17.53;;
14187;SDS011;7175;51.978;5.330;2023-04-30T08:44:36;19.13;;;17.63;;
14187;SDS011;7175;51.978;5.330;2023-04-30T08:47:09;19.17;;;17.67;;
14187;SDS011;7175;51.978;5.330;2023-04-30T08:49:39;19.23;;;17.73;;
14187;SDS011;7175;51.978;5.330;2023-04-30T08:52:08;19.10;;;17.60;;
14187;SDS011;7175;51.978;5.330;2023-04-30T08:54:38;18.77;;;17.37;;
14187;SDS011;7175;51.978;5.330;2023-04-30T08:57:07;19.03;;;17.57;;
14187;SDS011;7175;51.978;5.330;2023-04-30T08:59:36;19.37;;;17.87;;
14187;SDS011;7175;51.978;5.330;2023-04-30T09:02:05;19.00;;;17.57;;
14187;SDS011;7175;51.978;5.330;2023-04-30T09:04:36;19.03;;;17.53;;
14187;SDS011;7175;51.978;5.330;2023-04-30T09:07:04;18.53;;;17.13;;
14187;SDS011;7175;51.978;5.330;2023-04-30T09:09:36;19.10;;;17.60;;
14187;SDS011;7175;51.978;5.330;2023-04-30T09:12:11;18.43;;;17.03;;
14187;SDS011;7175;51.978;5.330;2023-04-30T09:14:56;19.40;;;17.90;;
14187;SDS011;7175;51.978;5.330;2023-04-30T09:17:26;18.70;;;17.20;;
14187;SDS011;7175;51.978;5.330;2023-04-30T09:20:04;18.87;;;17.37;;
14187;SDS011;7175;51.978;5.330;2023-04-30T09:22:34;18.83;;;17.33;;
14187;SDS011;7175;51.978;5.330;2023-04-30T09:25:06;20.00;;;18.40;;
14187;SDS011;7175;51.978;5.330;2023-04-30T09:27:35;19.70;;;18.07;;
14187;SDS011;7175;51.978;5.330;2023-04-30T09:30:04;20.23;;;18.43;;
14187;SDS011;7175;51.978;5.330;2023-04-30T09:32:34;19.60;;;18.03;;
14187;SDS011;7175;51.978;5.330;2023-04-30T09:35:02;19.47;;;17.90;;
14187;SDS011;7175;51.978;5.330;2023-04-30T09:37:35;19.10;;;17.60;;
14187;SDS011;7175;51.978;5.330;2023-04-30T09:40:06;19.27;;;17.77;;
14187;SDS011;7175;51.978;5.330;2023-04-30T09:42:36;19.63;;;18.13;;
14187;SDS011;7175;51.978;5.330;2023-04-30T09:45:05;19.50;;;18.00;;
14187;SDS011;7175;51.978;5.330;2023-04-30T09:47:37;19.30;;;17.80;;
14187;SDS011;7175;51.978;5.330;2023-04-30T09:50:07;20.00;;;18.30;;
14187;SDS011;7175;51.978;5.330;2023-04-30T09:52:40;19.23;;;17.73;;
14187;SDS011;7175;51.978;5.330;2023-04-30T09:55:16;19.30;;;17.80;;
14187;SDS011;7175;51.978;5.330;2023-04-30T09:57:45;19.17;;;17.67;;
14187;SDS011;7175;51.978;5.330;2023-04-30T10:00:15;19.30;;;17.80;;
14187;SDS011;7175;51.978;5.330;2023-04-30T10:02:44;19.77;;;18.27;;
14187;SDS011;7175;51.978;5.330;2023-04-30T10:05:13;20.03;;;18.40;;
14187;SDS011;7175;51.978;5.330;2023-04-30T10:07:42;19.17;;;17.67;;
14187;SDS011;7175;51.978;5.330;2023-04-30T10:10:11;19.50;;;18.00;;
14187;SDS011;7175;51.978;5.330;2023-04-30T10:12:43;19.07;;;17.57;;
14187;SDS011;7175;51.978;5.330;2023-04-30T10:15:20;19.30;;;17.80;;
14187;SDS011;7175;51.978;5.330;2023-04-30T10:17:53;19.17;;;17.67;;
14187;SDS011;7175;51.978;5.330;2023-04-30T10:20:24;19.40;;;17.90;;
14187;SDS011;7175;51.978;5.330;2023-04-30T10:22:53;20.60;;;19.00;;
14187;SDS011;7175;51.978;5.330;2023-04-30T10:25:22;19.57;;;18.07;;
14187;SDS011;7175;51.978;5.330;2023-04-30T10:27:52;19.27;;;17.77;;
14187;SDS011;7175;51.978;5.330;2023-04-30T10:30:21;19.90;;;18.40;;
14187;SDS011;7175;51.978;5.330;2023-04-30T10:32:51;19.23;;;17.73;;
14187;SDS011;7175;51.978;5.330;2023-04-30T10:35:25;18.60;;;17.10;;
14187;SDS011;7175;51.978;5.330;2023-04-30T10:37:58;19.60;;;18.10;;
14187;SDS011;7175;51.978;5.330;2023-04-30T10:40:37;19.90;;;18.30;;
14187;SDS011;7175;51.978;5.330;2023-04-30T10:43:07;19.57;;;17.97;;
14187;SDS011;7175;51.978;5.330;2023-04-30T10:45:40;18.90;;;17.30;;
14187;SDS011;7175;51.978;5.330;2023-04-30T10:48:10;20.17;;;18.47;;
14187;SDS011;7175;51.978;5.330;2023-04-30T10:50:41;19.30;;;17.80;;
14187;SDS011;7175;51.978;5.330;2023-04-30T10:53:12;18.63;;;17.13;;
14187;SDS011;7175;51.978;5.330;2023-04-30T10:55:45;18.60;;;17.10;;
14187;SDS011;7175;51.978;5.330;2023-04-30T10:58:26;18.30;;;16.90;;
14187;SDS011;7175;51.978;5.330;2023-04-30T11:01:00;18.23;;;16.80;;
14187;SDS011;7175;51.978;5.330;2023-04-30T11:03:31;18.60;;;17.10;;
14187;SDS011;7175;51.978;5.330;2023-04-30T11:06:01;18.40;;;17.00;;
14187;SDS011;7175;51.978;5.330;2023-04-30T11:08:35;18.30;;;16.87;;
14187;SDS011;7175;51.978;5.330;2023-04-30T11:11:04;18.63;;;17.13;;
14187;SDS011;7175;51.978;5.330;2023-04-30T11:13:40;18.97;;;17.47;;
14187;SDS011;7175;51.978;5.330;2023-04-30T11:16:11;18.90;;;17.40;;
14187;SDS011;7175;51.978;5.330;2023-04-30T11:18:42;18.77;;;17.27;;
14187;SDS011;7175;51.978;5.330;2023-04-30T11:21:11;18.60;;;17.10;;
14187;SDS011;7175;51.978;5.330;2023-04-30T11:23:41;18.40;;;17.00;;
14187;SDS011;7175;51.978;5.330;2023-04-30T11:26:10;17.57;;;16.27;;
14187;SDS011;7175;51.978;5.330;2023-04-30T11:28:40;18.30;;;16.80;;
14187;SDS011;7175;51.978;5.330;2023-04-30T11:31:17;17.70;;;16.30;;
14187;SDS011;7175;51.978;5.330;2023-04-30T11:33:46;17.73;;;16.33;;
14187;SDS011;7175;51.978;5.330;2023-04-30T11:36:16;18.70;;;17.20;;
14187;SDS011;7175;51.978;5.330;2023-04-30T11:38:46;18.70;;;17.20;;
14187;SDS011;7175;51.978;5.330;2023-04-30T11:41:14;18.70;;;17.20;;
14187;SDS011;7175;51.978;5.330;2023-04-30T11:43:44;18.33;;;16.83;;
14187;SDS011;7175;51.978;5.330;2023-04-30T11:46:12;18.43;;;16.93;;
14187;SDS011;7175;51.978;5.330;2023-04-30T11:48:44;18.43;;;16.93;;
14187;SDS011;7175;51.978;5.330;2023-04-30T11:51:14;18.70;;;17.20;;
14187;SDS011;7175;51.978;5.330;2023-04-30T11:53:44;17.67;;;16.27;;
14187;SDS011;7175;51.978;5.330;2023-04-30T11:56:13;18.00;;;16.60;;
14187;SDS011;7175;51.978;5.330;2023-04-30T11:58:46;18.20;;;16.80;;
14187;SDS011;7175;51.978;5.330;2023-04-30T12:01:15;17.80;;;16.40;;
14187;SDS011;7175;51.978;5.330;2023-04-30T12:03:46;18.70;;;17.20;;
14187;SDS011;7175;51.978;5.330;2023-04-30T12:06:20;19.83;;;16.97;;
14187;SDS011;7175;51.978;5.330;2023-04-30T12:08:51;17.87;;;16.47;;
14187;SDS011;7175;51.978;5.330;2023-04-30T12:11:20;18.30;;;16.80;;
14187;SDS011;7175;51.978;5.330;2023-04-30T12:13:53;18.53;;;17.03;;
14187;SDS011;7175;51.978;5.330;2023-04-30T12:16:23;18.60;;;17.10;;
14187;SDS011;7175;51.978;5.330;2023-04-30T12:18:52;35.40;;;32.43;;
14187;SDS011;7175;51.978;5.330;2023-04-30T12:21:21;30.00;;;26.97;;
14187;SDS011;7175;51.978;5.330;2023-04-30T12:23:50;37.30;;;34.10;;
14187;SDS011;7175;51.978;5.330;2023-04-30T12:26:18;19.20;;;17.60;;
14187;SDS011;7175;51.978;5.330;2023-04-30T12:28:47;18.90;;;17.40;;
14187;SDS011;7175;51.978;5.330;2023-04-30T12:31:17;18.93;;;17.43;;
14187;SDS011;7175;51.978;5.330;2023-04-30T12:33:52;19.80;;;18.20;;
14187;SDS011;7175;51.978;5.330;2023-04-30T12:36:27;19.67;;;18.07;;
14187;SDS011;7175;51.978;5.330;2023-04-30T12:39:01;19.90;;;18.30;;
14187;SDS011;7175;51.978;5.330;2023-04-30T12:41:38;19.30;;;17.70;;
14187;SDS011;7175;51.978;5.330;2023-04-30T12:44:15;19.30;;;17.70;;
14187;SDS011;7175;51.978;5.330;2023-04-30T12:46:45;19.10;;;17.50;;
14187;SDS011;7175;51.978;5.330;2023-04-30T12:49:24;19.30;;;17.70;;
14187;SDS011;7175;51.978;5.330;2023-04-30T12:51:56;19.37;;;17.77;;
14187;SDS011;7175;51.978;5.330;2023-04-30T12:54:27;19.30;;;17.70;;
14187;SDS011;7175;51.978;5.330;2023-04-30T12:56:59;19.47;;;17.87;;
14187;SDS011;7175;51.978;5.330;2023-04-30T12:59:29;19.20;;;17.67;;
14187;SDS011;7175;51.978;5.330;2023-04-30T13:02:06;19.23;;;17.70;;
14187;SDS011;7175;51.978;5.330;2023-04-30T13:04:36;19.65;;;18.05;;
14187;SDS011;7175;51.978;5.330;2023-04-30T13:07:05;19.07;;;17.57;;
14187;SDS011;7175;51.978;5.330;2023-04-30T13:09:33;19.47;;;17.90;;
14187;SDS011;7175;51.978;5.330;2023-04-30T13:12:03;18.13;;;16.73;;
14187;SDS011;7175;51.978;5.330;2023-04-30T13:14:32;18.53;;;17.03;;
14187;SDS011;7175;51.978;5.330;2023-04-30T13:17:01;18.73;;;17.23;;
14187;SDS011;7175;51.978;5.330;2023-04-30T13:19:32;18.47;;;16.97;;
14187;SDS011;7175;51.978;5.330;2023-04-30T13:22:01;19.10;;;17.60;;
14187;SDS011;7175;51.978;5.330;2023-04-30T13:24:29;18.53;;;17.07;;
14187;SDS011;7175;51.978;5.330;2023-04-30T13:26:58;19.20;;;17.70;;
14187;SDS011;7175;51.978;5.330;2023-04-30T13:29:28;19.00;;;17.50;;
14187;SDS011;7175;51.978;5.330;2023-04-30T13:31:57;18.20;;;16.77;;
14187;SDS011;7175;51.978;5.330;2023-04-30T13:34:25;18.00;;;16.60;;
14187;SDS011;7175;51.978;5.330;2023-04-30T13:36:55;20.40;;;18.70;;
14187;SDS011;7175;51.978;5.330;2023-04-30T13:39:24;19.53;;;18.03;;
14187;SDS011;7175;51.978;5.330;2023-04-30T13:41:52;18.37;;;16.87;;
14187;SDS011;7175;51.978;5.330;2023-04-30T13:44:21;18.47;;;16.97;;
14187;SDS011;7175;51.978;5.330;2023-04-30T13:46:49;18.77;;;17.27;;
14187;SDS011;7175;51.978;5.330;2023-04-30T13:49:18;23.53;;;21.40;;
14187;SDS011;7175;51.978;5.330;2023-04-30T13:51:46;20.13;;;18.33;;
14187;SDS011;7175;51.978;5.330;2023-04-30T13:54:16;21.70;;;20.00;;
14187;SDS011;7175;51.978;5.330;2023-04-30T13:56:45;20.70;;;19.03;;
14187;SDS011;7175;51.978;5.330;2023-04-30T13:59:14;19.60;;;18.07;;
14187;SDS011;7175;51.978;5.330;2023-04-30T14:01:42;24.83;;;22.53;;
14187;SDS011;7175;51.978;5.330;2023-04-30T14:04:11;22.73;;;20.77;;
14187;SDS011;7175;51.978;5.330;2023-04-30T14:06:39;25.67;;;23.70;;
14187;SDS011;7175;51.978;5.330;2023-04-30T14:09:09;19.93;;;17.90;;
14187;SDS011;7175;51.978;5.330;2023-04-30T14:11:38;19.50;;;17.90;;
14187;SDS011;7175;51.978;5.330;2023-04-30T14:14:08;19.00;;;17.50;;
14187;SDS011;7175;51.978;5.330;2023-04-30T14:16:36;19.27;;;17.67;;
14187;SDS011;7175;51.978;5.330;2023-04-30T14:19:05;18.70;;;17.20;;
14187;SDS011;7175;51.978;5.330;2023-04-30T14:21:33;19.10;;;17.50;;
14187;SDS011;7175;51.978;5.330;2023-04-30T14:24:02;18.67;;;17.07;;
14187;SDS011;7175;51.978;5.330;2023-04-30T14:26:30;18.57;;;17.07;;
14187;SDS011;7175;51.978;5.330;2023-04-30T14:29:01;18.20;;;16.80;;
14187;SDS011;7175;51.978;5.330;2023-04-30T14:31:29;18.30;;;16.90;;
14187;SDS011;7175;51.978;5.330;2023-04-30T14:33:59;18.30;;;16.80;;
14187;SDS011;7175;51.978;5.330;2023-04-30T14:36:27;18.80;;;17.30;;
14187;SDS011;7175;51.978;5.330;2023-04-30T14:38:56;18.00;;;16.57;;